Time;durP1;ratioP1;P1;durP2;ratioP2;P2;SDS_P1;SDS_P2;PMS_P1;PMS_P2;Temp;Humidity;BMP_temperature;BMP_pressure;BME280_temperature;BME280_humidity;BME280_pressure;Samples;Min_cycle;Max_cycle;Signal;HPM_P1;HPM_P2
2021/09/09 00:01:32;;;;;;;8.57;6.50;;;15.70;97.90;;;;;;4987514;28;20049;-92
2021/09/09 00:04:01;;;;;;;7.10;6.05;;;15.70;98.00;;;;;;4987974;28;20068;-90
2021/09/09 00:06:27;;;;;;;11.20;7.20;;;15.70;98.10;;;;;;4989787;28;20591;-90
2021/09/09 00:09:06;;;;;;;9.88;7.13;;;15.70;98.20;;;;;;4985758;28;20124;-91
2021/09/09 00:11:38;;;;;;;10.40;7.65;;;15.60;98.10;;;;;;5000782;28;20389;-92
2021/09/09 00:14:06;;;;;;;10.35;7.22;;;15.60;98.10;;;;;;5017728;28;20596;-92
2021/09/09 00:16:45;;;;;;;8.40;7.07;;;15.60;98.10;;;;;;4988983;28;20038;-91
2021/09/09 00:19:27;;;;;;;8.50;5.95;;;15.60;98.10;;;;;;5014989;28;20042;-90
2021/09/09 00:21:55;;;;;;;9.77;6.82;;;15.60;98.10;;;;;;4985668;28;20046;-91
2021/09/09 00:24:44;;;;;;;9.00;6.88;;;15.60;98.10;;;;;;5018190;28;20200;-91
2021/09/09 00:27:12;;;;;;;13.27;8.35;;;15.50;98.10;;;;;;4980274;28;20040;-91
2021/09/09 00:29:40;;;;;;;14.02;6.68;;;15.50;98.20;;;;;;5018441;28;20139;-91
2021/09/09 00:32:05;;;;;;;11.55;7.38;;;15.50;98.30;;;;;;4985304;28;20038;-91
2021/09/09 00:34:31;;;;;;;10.35;6.38;;;15.50;98.30;;;;;;5016219;28;20061;-91
2021/09/09 00:36:56;;;;;;;8.50;6.78;;;15.50;98.40;;;;;;4996378;28;20271;-88
2021/09/09 00:39:22;;;;;;;10.85;7.18;;;15.50;98.40;;;;;;5000200;28;20399;-89
2021/09/09 00:41:47;;;;;;;10.77;6.93;;;15.40;98.40;;;;;;4999636;28;20038;-90
2021/09/09 00:44:22;;;;;;;8.85;6.47;;;15.40;98.50;;;;;;5016489;28;20309;-89
2021/09/09 00:47:07;;;;;;;9.60;6.93;;;15.40;98.50;;;;;;4984353;28;20042;-89
2021/09/09 00:49:35;;;;;;;6.65;5.95;;;15.30;98.40;;;;;;4989345;28;20042;-91
2021/09/09 00:52:02;;;;;;;9.75;5.95;;;15.30;98.40;;;;;;5000482;28;20133;-91
2021/09/09 00:54:28;;;;;;;8.77;6.63;;;15.30;98.50;;;;;;4998846;28;20059;-90
2021/09/09 00:56:55;;;;;;;10.27;6.07;;;15.30;98.50;;;;;;5014308;28;20038;-90
2021/09/09 00:59:20;;;;;;;9.30;6.70;;;15.30;98.50;;;;;;5001831;28;20030;-91
2021/09/09 01:01:47;;;;;;;10.95;6.38;;;15.30;98.50;;;;;;4996411;28;20153;-91
2021/09/09 01:04:21;;;;;;;9.50;7.00;;;15.30;98.50;;;;;;4973103;28;20098;-91
2021/09/09 01:10:40;;;;;;;10.95;7.07;;;15.20;98.60;;;;;;5013781;28;20154;-92
2021/09/09 01:13:13;;;;;;;13.85;7.43;;;15.20;98.60;;;;;;4987707;28;20050;-92
2021/09/09 01:16:06;;;;;;;;;;;;;;;;;;;;;
2021/09/09 01:18:33;;;;;;;8.75;6.85;;;15.10;98.80;;;;;;4999642;28;20089;-93
2021/09/09 01:21:01;;;;;;;13.68;7.35;;;15.10;98.90;;;;;;4998891;28;20048;-91
2021/09/09 01:23:51;;;;;;;11.50;7.65;;;15.10;98.90;;;;;;4984391;28;20038;-93
2021/09/09 01:27:18;;;;;;;8.68;7.00;;;15.10;98.90;;;;;;4988147;28;20034;-90
2021/09/09 01:29:45;;;;;;;9.85;7.25;;;15.00;98.90;;;;;;4959505;29;20043;-90
2021/09/09 01:32:17;;;;;;;11.05;6.95;;;15.00;98.90;;;;;;4944307;29;20142;-91
2021/09/09 01:34:56;;;;;;;9.23;7.03;;;15.00;98.90;;;;;;4988293;28;20038;-93
2021/09/09 01:37:38;;;;;;;11.25;7.38;;;15.00;98.90;;;;;;5022946;28;20289;-91
2021/09/09 01:40:07;;;;;;;8.25;6.60;;;15.00;98.90;;;;;;5000126;28;20050;-92
2021/09/09 01:42:49;;;;;;;13.10;7.10;;;15.00;98.90;;;;;;4994659;28;20038;-92
2021/09/09 01:45:37;;;;;;;8.65;6.75;;;15.00;98.90;;;;;;5021162;28;20429;-92
2021/09/09 01:48:04;;;;;;;9.80;7.25;;;15.00;98.90;;;;;;5006414;28;20374;-91
2021/09/09 01:50:29;;;;;;;9.27;7.32;;;15.00;98.90;;;;;;4984241;28;20038;-90
2021/09/09 01:52:55;;;;;;;9.88;6.78;;;15.00;98.80;;;;;;4986111;28;20065;-91
2021/09/09 01:56:08;;;;;;;8.85;6.20;;;15.00;98.80;;;;;;4996157;28;20073;-91
2021/09/09 01:58:37;;;;;;;9.93;7.10;;;15.00;98.80;;;;;;5003857;28;20038;-91
2021/09/09 02:01:15;;;;;;;9.50;7.07;;;15.00;98.80;;;;;;4988358;28;20048;-92
2021/09/09 02:18:04;;;;;;;;;;;;;;;;;;;;;
2021/09/09 02:20:41;;;;;;;13.18;7.05;;;14.90;98.70;;;;;;4877745;29;20041;-92
2021/09/09 02:23:06;;;;;;;10.00;7.60;;;14.90;98.90;;;;;;4922013;29;20044;-93
2021/09/09 02:25:32;;;;;;;12.15;7.75;;;14.90;98.90;;;;;;4989325;28;20052;-93
2021/09/09 02:28:07;;;;;;;11.00;7.53;;;14.80;99.00;;;;;;4994738;28;20275;-92
2021/09/09 02:47:47;;;;;;;11.45;6.80;;;14.80;99.10;;;;;;5000075;28;20034;-91
2021/09/09 02:50:21;;;;;;;8.48;6.53;;;14.70;99.10;;;;;;4995624;28;20046;-92
2021/09/09 02:53:01;;;;;;;9.18;7.45;;;14.70;99.40;;;;;;4994429;28;20038;-93
2021/09/09 02:56:05;;;;;;;8.48;6.80;;;14.70;99.20;;;;;;5001102;28;20373;-93
2021/09/09 03:02:25;;;;;;;7.38;6.30;;;14.70;99.30;;;;;;4937362;29;20371;-92
2021/09/09 03:05:02;;;;;;;11.18;7.15;;;14.60;99.20;;;;;;4941490;29;20047;-90
2021/09/09 03:07:30;;;;;;;10.00;7.85;;;14.60;99.30;;;;;;4978960;28;20125;-91
2021/09/09 03:25:12;;;;;;;;;;;;;;;;;;;;;
2021/09/09 03:27:24;;;;;;;11.43;8.40;;;14.50;99.40;;;;;;4893017;29;20070;-91
2021/09/09 03:29:52;;;;;;;9.45;7.63;;;14.50;99.40;;;;;;4926274;28;20052;-90
2021/09/09 03:32:18;;;;;;;11.18;7.47;;;14.50;99.40;;;;;;4986177;28;20394;-92
2021/09/09 03:34:46;;;;;;;14.65;7.50;;;14.40;99.40;;;;;;4986339;28;20085;-90
2021/09/09 03:37:15;;;;;;;7.57;6.55;;;14.40;99.30;;;;;;4986921;28;20276;-91
2021/09/09 03:39:56;;;;;;;10.18;7.63;;;14.40;99.30;;;;;;4990667;28;20046;-92
2021/09/09 03:42:51;;;;;;;11.15;7.20;;;14.40;99.30;;;;;;5013099;28;20076;-92
2021/09/09 04:06:25;;;;;;;;;;;;;;;;;;;;;
2021/09/09 05:22:50;;;;;;;11.57;8.45;;;14.30;99.90;;;;;;4995555;28;20508;-85
2021/09/09 05:25:16;;;;;;;13.88;8.98;;;14.40;99.90;;;;;;4980254;28;20124;-89
2021/09/09 05:27:50;;;;;;;11.90;8.85;;;14.40;99.90;;;;;;4984206;28;20053;-92
2021/09/09 05:51:55;;;;;;;9.27;7.65;;;14.70;99.60;;;;;;5022924;28;20036;-89
2021/09/09 05:54:22;;;;;;;12.95;8.15;;;14.80;99.70;;;;;;5017816;28;20046;-89
2021/09/09 05:56:48;;;;;;;12.60;8.30;;;14.80;99.60;;;;;;5001156;28;20127;-90
2021/09/09 05:59:13;;;;;;;11.00;8.40;;;14.90;99.60;;;;;;5011335;28;20389;-90
2021/09/09 06:01:39;;;;;;;14.95;8.55;;;14.90;99.60;;;;;;4995057;28;20030;-90
2021/09/09 06:04:09;;;;;;;9.73;8.13;;;14.90;99.50;;;;;;4984285;28;20048;-93
2021/09/09 06:06:35;;;;;;;20.25;8.73;;;15.00;99.50;;;;;;4986732;28;20042;-93
2021/09/09 06:09:01;;;;;;;13.85;8.82;;;15.10;99.50;;;;;;4983361;28;20057;-91
2021/09/09 06:11:27;;;;;;;11.75;8.48;;;15.10;99.30;;;;;;5001826;28;20035;-91
2021/09/09 06:13:52;;;;;;;14.35;9.50;;;15.20;99.30;;;;;;4983972;28;20030;-92
2021/09/09 06:16:18;;;;;;;9.75;7.80;;;15.30;99.10;;;;;;4983368;28;20049;-93
2021/09/09 06:18:43;;;;;;;11.40;7.70;;;15.40;98.90;;;;;;5000302;28;20043;-89
2021/09/09 06:21:09;;;;;;;10.77;8.13;;;15.50;98.80;;;;;;4982967;28;20056;-92
2021/09/09 06:23:35;;;;;;;10.98;7.45;;;15.60;98.70;;;;;;4983533;28;20042;-91
2021/09/09 06:26:00;;;;;;;9.90;8.27;;;15.70;98.60;;;;;;4983342;28;20038;-91
2021/09/09 06:28:29;;;;;;;10.98;7.53;;;15.70;98.50;;;;;;4979399;28;20464;-91
2021/09/09 06:30:54;;;;;;;10.57;7.82;;;15.80;98.40;;;;;;5014980;28;20310;-91
2021/09/09 06:33:20;;;;;;;12.63;7.68;;;15.90;98.20;;;;;;4990508;28;20034;-92
2021/09/09 06:35:46;;;;;;;15.32;8.10;;;16.10;98.20;;;;;;4987900;28;20398;-91
2021/09/09 06:38:12;;;;;;;14.30;7.60;;;16.10;98.10;;;;;;4982882;28;20539;-90
2021/09/09 06:40:38;;;;;;;9.52;7.45;;;16.20;98.00;;;;;;4981891;28;20050;-92
2021/09/09 06:43:04;;;;;;;8.80;7.35;;;16.30;98.00;;;;;;4982606;28;20038;-91
2021/09/09 06:45:29;;;;;;;10.57;6.97;;;16.50;97.90;;;;;;4982486;28;20044;-91
2021/09/09 06:47:55;;;;;;;9.52;6.95;;;16.50;97.80;;;;;;4982197;28;20129;-91
2021/09/09 06:50:20;;;;;;;9.88;7.25;;;16.70;97.70;;;;;;4999451;28;20038;-90
2021/09/09 06:52:46;;;;;;;8.68;6.70;;;16.80;97.60;;;;;;4999092;28;20046;-91
2021/09/09 06:55:11;;;;;;;13.68;6.72;;;16.90;97.50;;;;;;4982307;28;20100;-90
2021/09/09 06:57:37;;;;;;;10.38;7.53;;;17.00;97.40;;;;;;5000298;28;20046;-89
2021/09/09 07:00:04;;;;;;;8.25;6.80;;;17.10;97.30;;;;;;4996637;28;20042;-89
2021/09/09 07:02:29;;;;;;;8.77;6.40;;;17.20;97.20;;;;;;4999362;28;20045;-89
2021/09/09 07:04:55;;;;;;;8.98;6.60;;;17.30;97.40;;;;;;5021037;28;20373;-88
2021/09/09 07:07:20;;;;;;;8.80;6.20;;;17.40;96.90;;;;;;5000872;28;20073;-89
2021/09/09 07:09:46;;;;;;;8.50;6.05;;;17.50;96.50;;;;;;4999066;28;20436;-88
2021/09/09 07:12:11;;;;;;;8.15;5.05;;;17.60;96.50;;;;;;5014782;28;20050;-89
2021/09/09 07:14:37;;;;;;;10.75;5.10;;;17.70;95.90;;;;;;5029852;28;20053;-89
2021/09/09 07:17:03;;;;;;;6.25;5.45;;;17.70;95.70;;;;;;5018558;28;20046;-89
2021/09/09 07:19:28;;;;;;;10.90;5.65;;;17.90;95.20;;;;;;4998615;28;20038;-90
2021/09/09 07:21:54;;;;;;;7.43;5.63;;;18.00;94.80;;;;;;5022198;28;20042;-89
2021/09/09 07:24:19;;;;;;;8.65;5.43;;;18.10;94.30;;;;;;5024290;28;20050;-88
2021/09/09 07:26:46;;;;;;;10.43;6.15;;;18.30;94.30;;;;;;4983903;28;20039;-88
2021/09/09 07:29:13;;;;;;;8.27;5.80;;;18.40;94.20;;;;;;4981137;28;20108;-91
2021/09/09 07:31:39;;;;;;;8.63;5.30;;;18.50;94.00;;;;;;4997661;28;20046;-88
2021/09/09 07:34:05;;;;;;;10.05;5.28;;;18.60;93.40;;;;;;5005524;28;20124;-89
2021/09/09 07:36:30;;;;;;;9.48;5.75;;;18.70;93.10;;;;;;5023680;28;20051;-89
2021/09/09 07:38:56;;;;;;;8.43;4.80;;;18.90;93.10;;;;;;4982135;28;20045;-90
2021/09/09 07:41:21;;;;;;;6.80;5.30;;;19.00;92.80;;;;;;5014223;28;20121;-89
2021/09/09 07:43:47;;;;;;;13.45;6.15;;;19.10;92.50;;;;;;4980924;28;20035;-89
2021/09/09 07:46:12;;;;;;;7.20;4.93;;;19.20;92.70;;;;;;4981438;28;20042;-89
2021/09/09 07:48:38;;;;;;;10.02;5.15;;;19.30;92.80;;;;;;5013187;28;20034;-89
2021/09/09 07:51:03;;;;;;;11.32;5.95;;;19.40;92.20;;;;;;4981044;28;20046;-90
2021/09/09 07:53:29;;;;;;;9.30;4.47;;;19.60;92.00;;;;;;4997680;28;20070;-88
2021/09/09 07:55:54;;;;;;;7.20;5.07;;;19.60;91.60;;;;;;4997542;28;20042;-88
2021/09/09 07:58:20;;;;;;;8.82;5.32;;;19.80;91.40;;;;;;5024221;28;20049;-88
2021/09/09 08:00:45;;;;;;;5.55;4.63;;;19.90;91.30;;;;;;5026216;28;20137;-88
2021/09/09 08:03:11;;;;;;;8.07;4.40;;;20.00;91.10;;;;;;5013632;28;20133;-88
2021/09/09 08:05:36;;;;;;;9.82;4.72;;;20.10;90.80;;;;;;5012560;28;20297;-87
2021/09/09 08:08:02;;;;;;;6.03;4.57;;;20.20;91.10;;;;;;4996445;28;20043;-88
2021/09/09 08:10:27;;;;;;;7.47;4.20;;;20.40;90.90;;;;;;5012688;28;20043;-91
2021/09/09 08:12:53;;;;;;;4.82;4.05;;;20.50;90.50;;;;;;4982989;28;20042;-88
2021/09/09 08:15:18;;;;;;;8.32;4.72;;;20.60;90.20;;;;;;5015796;28;20042;-89
2021/09/09 08:17:44;;;;;;;5.68;4.38;;;20.70;90.20;;;;;;5003323;28;20042;-88
2021/09/09 08:20:11;;;;;;;7.28;4.40;;;20.90;90.00;;;;;;5017070;28;20045;-88
2021/09/09 08:22:37;;;;;;;14.63;4.68;;;21.00;90.00;;;;;;4982498;28;20056;-87
2021/09/09 08:25:03;;;;;;;5.80;4.18;;;21.10;89.50;;;;;;4999923;28;20121;-88
2021/09/09 08:27:31;;;;;;;4.72;3.58;;;21.30;89.80;;;;;;4982727;28;20034;-88
2021/09/09 08:29:57;;;;;;;9.07;4.50;;;21.40;88.60;;;;;;5000534;28;20038;-89
2021/09/09 08:32:24;;;;;;;4.70;3.92;;;21.60;88.00;;;;;;4983284;28;20038;-87
2021/09/09 08:34:51;;;;;;;7.05;4.20;;;21.80;87.60;;;;;;4999749;28;20042;-89
2021/09/09 08:37:17;;;;;;;6.65;4.60;;;21.90;88.20;;;;;;4983817;28;20034;-87
2021/09/09 08:39:43;;;;;;;5.70;4.20;;;22.10;86.80;;;;;;5017950;28;20184;-88
2021/09/09 08:42:11;;;;;;;4.55;3.67;;;22.30;87.70;;;;;;5011329;28;20039;-90
2021/09/09 08:44:37;;;;;;;8.10;4.05;;;22.40;83.70;;;;;;5000465;28;20042;-88
2021/09/09 08:47:03;;;;;;;5.20;3.80;;;22.60;83.00;;;;;;4998769;28;20045;-88
2021/09/09 08:49:29;;;;;;;6.45;3.95;;;22.70;83.10;;;;;;5015565;28;20410;-87
2021/09/09 08:51:55;;;;;;;6.53;3.72;;;22.80;82.70;;;;;;4998636;28;20042;-90
2021/09/09 08:54:21;;;;;;;6.25;3.60;;;23.00;82.30;;;;;;5015907;28;20099;-88
2021/09/09 08:56:47;;;;;;;4.55;3.58;;;23.10;82.00;;;;;;5014826;28;20042;-89
2021/09/09 08:59:12;;;;;;;11.23;4.20;;;23.30;82.00;;;;;;4999529;28;20386;-89
2021/09/09 09:02:07;;;;;;;4.97;3.75;;;23.40;81.90;;;;;;5015236;28;20362;-89
2021/09/09 09:04:33;;;;;;;4.85;3.30;;;23.60;81.90;;;;;;4999084;28;20038;-89
2021/09/09 09:07:00;;;;;;;5.72;3.30;;;23.70;80.50;;;;;;4999762;28;20038;-90
2021/09/09 09:09:28;;;;;;;5.18;3.50;;;23.80;80.00;;;;;;4999483;28;20077;-89
2021/09/09 09:11:53;;;;;;;3.92;3.28;;;24.00;82.20;;;;;;5000637;28;20077;-90
2021/09/09 09:14:25;;;;;;;4.22;3.03;;;24.10;79.30;;;;;;5000593;28;20038;-89
2021/09/09 09:16:54;;;;;;;8.70;3.47;;;24.20;79.30;;;;;;5019144;28;20072;-89
2021/09/09 09:19:25;;;;;;;3.22;2.90;;;24.30;78.50;;;;;;4999097;28;20049;-89
2021/09/09 09:21:55;;;;;;;3.95;3.50;;;24.50;77.30;;;;;;4999266;28;20038;-90
2021/09/09 09:24:21;;;;;;;4.00;3.30;;;24.50;76.40;;;;;;4999157;28;20302;-89
2021/09/09 09:27:13;;;;;;;4.68;3.20;;;24.70;76.40;;;;;;5014605;28;20034;-89
2021/09/09 09:29:40;;;;;;;5.47;3.80;;;24.80;76.90;;;;;;5015737;28;20418;-89
2021/09/09 09:32:15;;;;;;;4.93;3.72;;;24.90;77.90;;;;;;5008523;28;20042;-90
2021/09/09 09:34:42;;;;;;;5.22;3.83;;;25.00;76.50;;;;;;5000049;28;20042;-90
2021/09/09 09:37:08;;;;;;;6.03;3.53;;;25.10;76.50;;;;;;4982844;28;20127;-91
2021/09/09 09:39:33;;;;;;;10.05;3.83;;;25.20;75.80;;;;;;4982935;28;20066;-90
2021/09/09 09:42:01;;;;;;;5.65;3.30;;;25.20;75.60;;;;;;4999678;28;20041;-90
2021/09/09 09:44:42;;;;;;;4.25;3.17;;;25.20;78.00;;;;;;5011919;28;20034;-90
2021/09/09 09:47:13;;;;;;;4.50;4.03;;;25.30;77.90;;;;;;4988928;28;20038;-93
2021/09/09 09:49:47;;;;;;;5.93;3.35;;;25.30;76.60;;;;;;5000623;28;20042;-91
2021/09/09 09:52:26;;;;;;;5.90;3.72;;;25.40;75.50;;;;;;4982586;28;20097;-89
2021/09/09 09:55:00;;;;;;;4.38;3.25;;;25.40;78.10;;;;;;4999884;28;20038;-92
2021/09/09 09:57:29;;;;;;;6.40;4.25;;;25.40;75.80;;;;;;4982824;28;20088;-90
2021/09/09 09:59:54;;;;;;;7.28;3.55;;;25.40;75.00;;;;;;4998108;28;20060;-90
2021/09/09 10:02:20;;;;;;;6.88;3.90;;;25.40;76.70;;;;;;4982105;28;20038;-90
2021/09/09 10:04:48;;;;;;;5.78;3.58;;;25.50;77.80;;;;;;4981777;28;20073;-90
2021/09/09 10:07:15;;;;;;;11.13;3.67;;;25.60;76.70;;;;;;4982102;28;20045;-89
2021/09/09 10:09:42;;;;;;;7.85;3.55;;;25.70;75.80;;;;;;4981999;28;20046;-90
2021/09/09 10:12:09;;;;;;;7.45;3.67;;;25.80;75.80;;;;;;4999338;28;20464;-89
2021/09/09 10:14:40;;;;;;;6.88;3.72;;;25.90;77.50;;;;;;4999310;28;20568;-90
2021/09/09 10:17:06;;;;;;;5.10;4.00;;;26.00;76.30;;;;;;5015003;28;20133;-91
2021/09/09 10:19:33;;;;;;;4.43;3.83;;;26.10;75.80;;;;;;5022260;28;20038;-90
2021/09/09 10:22:04;;;;;;;10.02;3.67;;;26.10;77.80;;;;;;5029005;28;20038;-90
2021/09/09 10:24:31;;;;;;;7.45;4.35;;;26.20;75.90;;;;;;5004476;28;20066;-90
2021/09/09 10:27:23;;;;;;;8.25;3.95;;;26.30;77.50;;;;;;4995667;28;20093;-89
2021/09/09 10:30:02;;;;;;;7.18;3.90;;;26.40;76.40;;;;;;4997508;28;20498;-86
2021/09/09 10:32:34;;;;;;;6.28;3.90;;;26.40;74.90;;;;;;5005882;28;20034;-87
2021/09/09 10:35:18;;;;;;;8.75;4.75;;;26.50;73.70;;;;;;4998590;28;20042;-86
2021/09/09 10:37:50;;;;;;;6.32;3.55;;;26.50;74.50;;;;;;4974989;28;20354;-86
2021/09/09 10:40:28;;;;;;;6.40;3.92;;;26.50;73.40;;;;;;4994947;28;20500;-87
2021/09/09 10:42:55;;;;;;;7.22;3.65;;;26.50;76.20;;;;;;4995435;28;20356;-87
2021/09/09 10:45:33;;;;;;;6.63;4.20;;;26.60;73.80;;;;;;4999429;28;20053;-88
2021/09/09 10:47:58;;;;;;;9.13;3.90;;;26.70;73.20;;;;;;4995332;28;20169;-87
2021/09/09 10:50:25;;;;;;;6.00;3.80;;;26.70;74.70;;;;;;4987319;28;20080;-88
2021/09/09 10:53:07;;;;;;;5.95;3.75;;;26.80;75.50;;;;;;4999068;28;20049;-87
2021/09/09 10:55:35;;;;;;;7.28;4.20;;;26.80;76.80;;;;;;4980495;28;20038;-88
2021/09/09 10:58:15;;;;;;;5.35;3.92;;;27.00;77.00;;;;;;4995630;28;20116;-93
2021/09/09 11:00:53;;;;;;;5.65;3.90;;;27.10;78.10;;;;;;4997320;28;20053;-90
2021/09/09 11:03:39;;;;;;;7.10;4.80;;;27.20;73.00;;;;;;4978985;28;20398;-90
2021/09/09 11:06:16;;;;;;;9.40;3.92;;;27.30;72.80;;;;;;4988792;28;20057;-91
2021/09/09 11:08:43;;;;;;;6.72;3.95;;;27.30;73.60;;;;;;5013441;28;20030;-90
2021/09/09 11:11:21;;;;;;;6.40;4.13;;;27.40;72.00;;;;;;5012739;28;20065;-90
2021/09/09 11:13:54;;;;;;;7.13;4.03;;;27.40;72.80;;;;;;5013693;28;20105;-90
2021/09/09 11:16:24;;;;;;;6.63;3.88;;;27.50;73.80;;;;;;4997846;28;20045;-91
2021/09/09 11:18:50;;;;;;;8.25;3.63;;;27.50;72.80;;;;;;4997735;28;20394;-91
2021/09/09 11:21:22;;;;;;;7.32;3.67;;;27.60;73.20;;;;;;4997690;28;20042;-90
2021/09/09 11:23:49;;;;;;;5.10;4.07;;;27.60;75.60;;;;;;5014492;28;20038;-91
2021/09/09 11:26:17;;;;;;;4.18;3.58;;;27.70;74.10;;;;;;5026255;28;20332;-91
2021/09/09 11:28:42;;;;;;;5.55;3.92;;;27.80;74.40;;;;;;4997963;28;20038;-90
2021/09/09 11:31:11;;;;;;;4.07;3.47;;;27.90;70.40;;;;;;5013632;28;20034;-91
2021/09/09 11:33:50;;;;;;;5.13;3.47;;;28.00;69.30;;;;;;5013327;28;20394;-92
2021/09/09 11:36:15;;;;;;;5.50;3.42;;;28.10;70.80;;;;;;4998210;28;20038;-92
2021/09/09 11:38:41;;;;;;;4.13;2.90;;;28.20;69.60;;;;;;4998222;28;20049;-91
2021/09/09 11:41:13;;;;;;;3.15;2.75;;;28.30;70.10;;;;;;4997292;28;20127;-90
2021/09/09 11:43:47;;;;;;;5.05;3.72;;;28.40;70.30;;;;;;4981524;28;20105;-90
2021/09/09 11:46:21;;;;;;;9.50;3.53;;;28.50;69.90;;;;;;4982179;28;20038;-90
2021/09/09 11:48:52;;;;;;;8.73;3.95;;;28.50;69.90;;;;;;5017191;28;20037;-91
2021/09/09 11:51:34;;;;;;;5.75;3.25;;;28.60;68.20;;;;;;5016691;28;20046;-90
2021/09/09 11:54:01;;;;;;;7.47;3.78;;;28.70;68.20;;;;;;5017548;28;20403;-93
2021/09/09 11:56:26;;;;;;;5.45;3.58;;;28.80;69.60;;;;;;5018194;28;20540;-88
2021/09/09 11:58:52;;;;;;;5.82;3.58;;;28.90;69.90;;;;;;4993810;28;20038;-90
2021/09/09 12:01:18;;;;;;;5.35;3.35;;;28.90;68.30;;;;;;5022694;28;20303;-90
2021/09/09 12:03:45;;;;;;;5.63;3.00;;;29.00;69.50;;;;;;5007447;28;20110;-90
2021/09/09 12:06:17;;;;;;;4.78;3.08;;;29.10;69.80;;;;;;5016925;28;20370;-90
2021/09/09 12:08:44;;;;;;;;;;;29.10;68.60;;;;;;5001079;28;20035;-91
2021/09/09 12:11:12;;;;;;;4.35;3.60;;;29.20;69.80;;;;;;4983506;28;19920;-90
2021/09/09 12:13:41;;;;;;;3.17;2.88;;;29.20;67.60;;;;;;5016260;28;20042;-90
2021/09/09 12:16:21;;;;;;;3.97;3.05;;;29.30;67.20;;;;;;5016610;28;20053;-89
2021/09/09 12:19:01;;;;;;;5.68;3.75;;;29.30;68.30;;;;;;4983614;28;20053;-90
2021/09/09 12:21:27;;;;;;;3.75;2.88;;;29.40;67.60;;;;;;5015446;28;20045;-90
2021/09/09 12:24:03;;;;;;;7.20;3.38;;;29.40;66.80;;;;;;5000223;28;20041;-89
2021/09/09 12:26:28;;;;;;;6.15;3.53;;;29.50;65.60;;;;;;5016338;28;20070;-89
2021/09/09 12:28:54;;;;;;;3.75;3.30;;;29.60;67.30;;;;;;4999414;28;20074;-90
2021/09/09 12:31:34;;;;;;;4.22;3.35;;;29.70;65.60;;;;;;5016022;28;20042;-90
2021/09/09 12:34:07;;;;;;;5.65;3.00;;;29.70;67.50;;;;;;5016408;28;20128;-91
2021/09/09 12:36:41;;;;;;;8.75;3.50;;;29.80;66.50;;;;;;5021817;28;20053;-91
2021/09/09 12:39:07;;;;;;;6.22;2.97;;;29.90;65.50;;;;;;5023257;28;20084;-89
2021/09/09 12:41:33;;;;;;;3.72;3.17;;;29.90;66.30;;;;;;4999892;28;20066;-88
2021/09/09 12:43:59;;;;;;;5.57;3.25;;;29.90;65.40;;;;;;4999399;28;20045;-89
2021/09/09 12:46:32;;;;;;;3.90;3.03;;;30.10;66.50;;;;;;5015118;28;20042;-90
2021/09/09 12:49:14;;;;;;;5.88;2.80;;;30.20;65.00;;;;;;4982333;28;20042;-91
2021/09/09 12:51:45;;;;;;;4.45;2.92;;;30.30;66.90;;;;;;5014216;28;20038;-90
2021/09/09 12:54:13;;;;;;;3.95;2.72;;;30.40;65.70;;;;;;4999490;28;20038;-88
2021/09/09 12:56:50;;;;;;;4.43;2.95;;;30.50;66.00;;;;;;4999354;28;20027;-88
2021/09/09 12:59:27;;;;;;;3.95;2.97;;;30.40;62.30;;;;;;4980448;28;20042;-89
2021/09/09 13:01:53;;;;;;;3.47;2.53;;;30.40;62.90;;;;;;4981515;28;20106;-88
2021/09/09 13:04:19;;;;;;;3.75;2.72;;;30.50;62.80;;;;;;4999574;28;20034;-90
2021/09/09 13:06:45;;;;;;;2.90;2.60;;;30.40;63.70;;;;;;4999154;28;20042;-89
2021/09/09 13:09:11;;;;;;;6.50;2.80;;;30.40;62.50;;;;;;4981842;28;20125;-88
2021/09/09 13:11:37;;;;;;;5.88;2.35;;;30.40;62.00;;;;;;4981852;28;20045;-88
2021/09/09 13:14:03;;;;;;;4.45;2.55;;;30.40;62.10;;;;;;4983353;28;20038;-89
2021/09/09 13:16:28;;;;;;;4.20;2.90;;;30.40;62.40;;;;;;4984520;28;20125;-90
2021/09/09 13:18:54;;;;;;;3.22;2.60;;;30.40;63.20;;;;;;4999529;28;20074;-88
2021/09/09 13:21:26;;;;;;;7.03;2.72;;;30.50;64.70;;;;;;5001133;28;20038;-90
2021/09/09 13:23:52;;;;;;;5.72;2.90;;;30.60;62.40;;;;;;4998663;28;20045;-88
2021/09/09 13:26:17;;;;;;;4.50;2.42;;;30.60;62.70;;;;;;5001539;28;20030;-87
2021/09/09 13:28:43;;;;;;;5.60;2.35;;;30.60;62.10;;;;;;4983874;28;20142;-88
2021/09/09 13:31:21;;;;;;;9.93;2.58;;;30.70;62.10;;;;;;4983695;28;20077;-88
2021/09/09 13:33:47;;;;;;;8.27;3.42;;;30.70;60.30;;;;;;4997396;28;20061;-90
2021/09/09 13:36:14;;;;;;;5.22;2.92;;;30.80;61.60;;;;;;5000511;28;20050;-90
2021/09/09 13:38:40;;;;;;;3.78;2.25;;;30.80;61.10;;;;;;5017267;28;20088;-91
2021/09/09 13:41:05;;;;;;;4.75;2.50;;;30.90;59.00;;;;;;5004731;28;20125;-90
2021/09/09 13:43:32;;;;;;;3.38;2.17;;;30.90;59.20;;;;;;4985597;28;20077;-90
2021/09/09 13:45:57;;;;;;;3.92;2.63;;;30.90;57.80;;;;;;4984924;28;20042;-93
2021/09/09 13:48:23;;;;;;;3.25;2.28;;;30.90;59.60;;;;;;5017647;28;20034;-92
2021/09/09 13:50:48;;;;;;;4.22;2.58;;;30.80;59.10;;;;;;5016060;28;20042;-89
2021/09/09 13:53:14;;;;;;;3.63;2.20;;;30.80;59.20;;;;;;5017009;28;20045;-89
2021/09/09 13:55:39;;;;;;;5.72;2.47;;;30.70;59.20;;;;;;5016384;28;20058;-91
2021/09/09 13:58:05;;;;;;;6.97;2.58;;;30.70;59.90;;;;;;5026286;28;20361;-91
2021/09/09 14:00:32;;;;;;;3.53;2.50;;;30.70;58.70;;;;;;5018491;28;20038;-90
2021/09/09 14:02:58;;;;;;;4.05;2.25;;;30.80;60.50;;;;;;5015956;28;20038;-89
2021/09/09 14:05:24;;;;;;;3.03;2.30;;;30.80;58.50;;;;;;5021097;28;20042;-88
2021/09/09 14:07:49;;;;;;;5.93;2.60;;;30.90;58.30;;;;;;5000764;28;20038;-90
2021/09/09 14:10:18;;;;;;;3.60;2.60;;;30.90;58.60;;;;;;5014270;28;20053;-90
2021/09/09 14:12:44;;;;;;;3.03;1.95;;;30.90;58.60;;;;;;4982629;28;20038;-88
2021/09/09 14:15:12;;;;;;;3.70;2.63;;;30.90;58.90;;;;;;4981836;28;20397;-88
2021/09/09 14:17:37;;;;;;;7.85;2.78;;;30.90;59.90;;;;;;4999770;28;20049;-88
2021/09/09 14:20:04;;;;;;;4.03;2.78;;;30.90;59.90;;;;;;5000400;28;20030;-92
2021/09/09 14:22:41;;;;;;;3.33;2.47;;;30.90;60.40;;;;;;4983663;28;20148;-94
2021/09/09 14:25:08;;;;;;;3.47;2.17;;;30.80;59.20;;;;;;4982563;28;20405;-88
2021/09/09 14:27:35;;;;;;;4.68;2.63;;;30.80;58.70;;;;;;4982033;28;20046;-89
2021/09/09 14:30:01;;;;;;;3.40;2.63;;;30.80;58.90;;;;;;4982902;28;20738;-90
2021/09/09 14:32:26;;;;;;;4.03;2.58;;;30.90;59.10;;;;;;5014733;28;20093;-90
2021/09/09 14:34:52;;;;;;;3.53;2.85;;;31.00;61.10;;;;;;5014843;28;20038;-90
2021/09/09 14:37:18;;;;;;;4.50;3.05;;;31.10;60.40;;;;;;5014323;28;20034;-89
2021/09/09 14:39:44;;;;;;;3.22;2.30;;;31.20;60.50;;;;;;4981748;28;20104;-89
2021/09/09 14:42:10;;;;;;;4.15;3.10;;;31.30;59.50;;;;;;4999002;28;20038;-90
2021/09/09 14:44:35;;;;;;;3.15;2.30;;;31.30;58.60;;;;;;4998878;28;20030;-90
2021/09/09 14:47:01;;;;;;;5.65;2.60;;;31.30;58.80;;;;;;5016572;28;20302;-91
2021/09/09 14:49:33;;;;;;;5.38;2.38;;;31.30;60.70;;;;;;5015212;28;20061;-89
2021/09/09 14:52:03;;;;;;;5.68;2.70;;;31.30;59.00;;;;;;4982590;28;20089;-87
2021/09/09 14:54:31;;;;;;;3.38;2.10;;;31.20;58.20;;;;;;5003188;28;20034;-89
2021/09/09 14:56:58;;;;;;;4.10;2.78;;;31.10;58.30;;;;;;4982967;28;20101;-91
2021/09/09 14:59:56;;;;;;;3.78;2.20;;;31.00;59.00;;;;;;4981703;28;20038;-92
2021/09/09 15:02:42;;;;;;;4.25;2.63;;;31.00;60.50;;;;;;4982487;28;20112;-91
2021/09/09 15:05:08;;;;;;;4.35;2.67;;;31.00;61.40;;;;;;4983095;28;20038;-89
2021/09/09 15:07:37;;;;;;;5.80;2.63;;;30.90;59.20;;;;;;4996052;28;20124;-91
2021/09/09 15:10:16;;;;;;;8.23;2.70;;;30.90;60.40;;;;;;4983286;28;20053;-92
2021/09/09 15:12:47;;;;;;;3.47;2.50;;;30.90;59.90;;;;;;4999213;28;20030;-92
2021/09/09 15:15:15;;;;;;;6.10;2.85;;;30.90;60.40;;;;;;4982782;28;20034;-91
2021/09/09 15:17:44;;;;;;;4.88;2.42;;;30.80;59.70;;;;;;4983105;28;20125;-94
2021/09/09 15:20:16;;;;;;;2.90;2.65;;;30.80;60.40;;;;;;4959030;28;20486;-93
2021/09/09 15:23:08;;;;;;;5.60;2.83;;;30.70;62.10;;;;;;5000636;28;20044;-93
2021/09/09 15:26:20;;;;;;;7.45;2.85;;;30.70;63.70;;;;;;4987160;28;20105;-95
2021/09/09 15:28:46;;;;;;;5.07;2.45;;;30.60;61.70;;;;;;4987163;28;20045;-92
2021/09/09 15:31:12;;;;;;;4.07;2.58;;;30.50;60.10;;;;;;4998701;28;20037;-92
2021/09/09 15:33:38;;;;;;;7.97;2.80;;;30.40;61.80;;;;;;4989364;28;20116;-86
2021/09/09 15:36:04;;;;;;;3.70;2.72;;;30.40;62.30;;;;;;5002223;28;20026;-87
2021/09/09 15:38:30;;;;;;;4.18;2.50;;;30.30;62.90;;;;;;4983421;28;20045;-86
2021/09/09 15:40:57;;;;;;;3.45;2.80;;;30.30;62.20;;;;;;5000908;28;20046;-89
2021/09/09 15:43:23;;;;;;;3.90;2.47;;;30.30;62.70;;;;;;5001849;28;20050;-88
2021/09/09 15:45:48;;;;;;;3.95;2.65;;;30.20;62.90;;;;;;5002752;28;20053;-88
2021/09/09 15:48:14;;;;;;;3.17;2.78;;;30.20;61.90;;;;;;4983293;28;20046;-87
2021/09/09 15:50:40;;;;;;;4.47;3.47;;;30.10;62.40;;;;;;4985921;28;20133;-87
2021/09/09 15:53:06;;;;;;;5.47;3.78;;;30.10;64.70;;;;;;5015471;28;20038;-88
2021/09/09 15:55:31;;;;;;;5.18;3.30;;;30.00;67.30;;;;;;4981483;28;20314;-88